createdAt,value
2023-03-20T00:01:56.690Z,101821.72
2023-03-20T00:03:58.286Z,101822.59
2023-03-20T00:05:59.816Z,101814.69
2023-03-20T00:08:01.920Z,101814.69
2023-03-20T00:10:03.553Z,101815.56
2023-03-20T00:12:05.678Z,101819.94
2023-03-20T00:14:10.229Z,101816.44
2023-03-20T00:16:12.328Z,101821.69
2023-03-20T00:18:19.950Z,101823.44
2023-03-20T00:20:22.276Z,101817.31
2023-03-20T00:22:23.831Z,101822.56
2023-03-20T00:24:25.762Z,101827.84
2023-03-20T00:26:33.328Z,101825.19
2023-03-20T00:28:40.831Z,101824.38
2023-03-20T00:30:42.329Z,101828.75
2023-03-20T00:32:43.900Z,101819.97
2023-03-20T00:34:45.785Z,101814.72
2023-03-20T00:36:47.605Z,101813.84
2023-03-20T00:38:49.588Z,101813.88
2023-03-20T00:40:51.288Z,101814.72
2023-03-20T00:42:59.209Z,101818.25
2023-03-20T00:45:02.402Z,101819.13
2023-03-20T00:47:18.914Z,101818.25
2023-03-20T00:49:27.953Z,101824.41
2023-03-20T00:51:29.729Z,101820.03
2023-03-20T00:53:31.208Z,101820.03
2023-03-20T00:55:33.031Z,101827.06
2023-03-20T00:57:40.770Z,101822.66
2023-03-20T00:59:52.593Z,101828.78
2023-03-20T01:01:54.132Z,101823.56
2023-03-20T01:03:55.609Z,101821.81
2023-03-20T01:05:57.546Z,101815.66
2023-03-20T01:07:59.377Z,101825.31
2023-03-20T01:10:01.191Z,101822.69
2023-03-20T01:12:03.691Z,101828.81
2023-03-20T01:14:13.470Z,101834.09
2023-03-20T01:16:26.214Z,101832.34
2023-03-20T01:18:28.003Z,101833.22
2023-03-20T01:20:30.931Z,101835.88
2023-03-20T01:22:32.386Z,101841.16
2023-03-20T01:24:33.885Z,101841.19
2023-03-20T01:26:44.644Z,101846.47
2023-03-20T01:28:46.068Z,101843.84
2023-03-20T01:30:48.539Z,101853.53
2023-03-20T01:32:50.914Z,101854.41
2023-03-20T01:34:53.250Z,101854.41
2023-03-20T01:36:57.565Z,101863.22
2023-03-20T01:38:59.397Z,101864.97
2023-03-20T01:41:12.072Z,101863.25
2023-03-20T01:43:17.100Z,101865.88
2023-03-20T01:45:21.819Z,101871.16
2023-03-20T01:47:24.876Z,101862.41
2023-03-20T01:49:26.493Z,101865.06
2023-03-20T01:51:36.173Z,101869.47
2023-03-20T01:53:37.759Z,101870.38
2023-03-20T01:55:42.086Z,101873.00
2023-03-20T01:57:44.145Z,101862.47
2023-03-20T01:59:45.643Z,101869.53
2023-03-20T02:01:47.373Z,101878.31
2023-03-20T02:03:50.537Z,101869.56
2023-03-20T02:05:52.229Z,101866.06
2023-03-20T02:08:18.587Z,101865.19
2023-03-20T02:10:20.655Z,101866.09
2023-03-20T02:12:22.682Z,101868.75
2023-03-20T02:14:24.293Z,101864.38
2023-03-20T02:16:26.561Z,101867.91
2023-03-20T02:18:28.726Z,101864.38
2023-03-20T02:20:56.939Z,101862.63
2023-03-20T02:23:36.262Z,101853.88
2023-03-20T02:26:02.585Z,101849.50
2023-03-20T02:28:16.301Z,101853.88
2023-03-20T02:30:36.979Z,101854.75
2023-03-20T02:33:29.962Z,101854.78
2023-03-20T02:36:04.901Z,101847.75
2023-03-20T02:38:26.653Z,101850.38
2023-03-20T02:40:34.500Z,101842.47
2023-03-20T02:42:56.361Z,101838.97
2023-03-20T02:45:43.044Z,101839.84
2023-03-20T02:47:54.365Z,101839.84
2023-03-20T02:50:13.826Z,101833.69
2023-03-20T02:52:30.348Z,101843.38
2023-03-20T02:54:56.246Z,101835.47
2023-03-20T02:57:29.941Z,101830.19
2023-03-20T02:59:40.732Z,101828.44
2023-03-20T03:01:48.736Z,101828.44
2023-03-20T03:04:02.149Z,101822.28
2023-03-20T03:06:12.613Z,101820.53
2023-03-20T03:08:19.612Z,101810.00
2023-03-20T03:10:27.277Z,101809.13
2023-03-20T03:12:33.141Z,101815.28
2023-03-20T03:14:46.182Z,101800.34
2023-03-20T03:16:50.941Z,101802.09
2023-03-20T03:19:01.677Z,101793.34
2023-03-20T03:21:05.700Z,101794.22
2023-03-20T03:23:07.435Z,101803.84
2023-03-20T03:25:12.370Z,101793.34
2023-03-20T03:27:22.923Z,101794.22
2023-03-20T03:29:28.012Z,101789.84
2023-03-20T03:31:31.813Z,101787.22
2023-03-20T03:33:37.138Z,101774.91
2023-03-20T03:35:40.204Z,101777.53
2023-03-20T03:37:47.549Z,101789.81
2023-03-20T03:40:05.405Z,101783.69
2023-03-20T03:42:19.177Z,101783.69
2023-03-20T03:44:28.226Z,101788.09
2023-03-20T03:46:57.317Z,101787.22
2023-03-20T03:48:59.757Z,101788.09
2023-03-20T03:51:07.070Z,101786.31
2023-03-20T03:53:12.561Z,101783.69
2023-03-20T03:55:21.431Z,101785.44
2023-03-20T03:57:30.709Z,101779.28
2023-03-20T03:59:43.424Z,101774.91
2023-03-20T04:01:47.657Z,101779.31
2023-03-20T04:03:52.428Z,101775.81
2023-03-20T04:05:56.950Z,101782.84
2023-03-20T04:08:01.173Z,101784.59
2023-03-20T04:10:03.478Z,101792.50
2023-03-20T04:12:05.373Z,101787.25
2023-03-20T04:14:06.930Z,101793.38
2023-03-20T04:16:14.269Z,101789.00
2023-03-20T04:18:18.054Z,101784.63
2023-03-20T04:20:20.235Z,101789.00
2023-03-20T04:22:21.798Z,101794.28
2023-03-20T04:24:23.418Z,101799.53
2023-03-20T04:26:24.890Z,101789.00
2023-03-20T04:28:26.455Z,101788.13
2023-03-20T04:30:27.914Z,101779.38
2023-03-20T04:32:29.358Z,101784.63
2023-03-20T04:34:30.808Z,101784.63
2023-03-20T04:36:32.266Z,101779.38
2023-03-20T04:38:33.781Z,101771.50
2023-03-20T04:40:35.505Z,101777.63
2023-03-20T04:42:36.972Z,101772.38
2023-03-20T04:44:38.428Z,101765.34
2023-03-20T04:46:39.880Z,101766.22
2023-03-20T04:48:41.323Z,101767.09
2023-03-20T04:50:42.870Z,101761.84
2023-03-20T04:52:44.335Z,101764.47
2023-03-20T04:54:45.918Z,101760.97
2023-03-20T04:56:47.515Z,101773.25
2023-03-20T04:58:49.004Z,101774.13
2023-03-20T05:00:50.751Z,101779.41
2023-03-20T05:02:52.230Z,101775.00
2023-03-20T05:04:53.719Z,101782.91
2023-03-20T05:06:55.607Z,101775.00
2023-03-20T05:09:05.234Z,101783.78
2023-03-20T05:11:08.228Z,101777.66
2023-03-20T05:13:09.691Z,101788.16
2023-03-20T05:15:17.019Z,101783.78
2023-03-20T05:17:21.626Z,101784.66
2023-03-20T05:19:23.128Z,101788.16
2023-03-20T05:21:24.867Z,101791.66
2023-03-20T05:23:26.330Z,101784.66
2023-03-20T05:25:27.826Z,101790.78
2023-03-20T05:27:29.328Z,101788.16
2023-03-20T05:29:31.033Z,101784.63
2023-03-20T05:31:32.821Z,101796.00
2023-03-20T05:33:36.812Z,101782.00
2023-03-20T05:35:39.816Z,101788.16
2023-03-20T05:37:41.468Z,101796.03
2023-03-20T05:39:43.069Z,101794.31
2023-03-20T05:41:45.896Z,101797.81
2023-03-20T05:43:47.474Z,101798.69
2023-03-20T05:45:48.994Z,101797.81
2023-03-20T05:47:50.596Z,101802.19
2023-03-20T05:49:52.128Z,101806.59
2023-03-20T05:51:53.614Z,101801.31
2023-03-20T05:53:55.182Z,101803.94
2023-03-20T05:55:56.846Z,101804.81
2023-03-20T05:57:58.376Z,101808.31
2023-03-20T05:59:59.828Z,101813.59
2023-03-20T06:02:01.280Z,101813.59
2023-03-20T06:04:03.202Z,101814.47
2023-03-20T06:06:05.234Z,101813.59
2023-03-20T06:08:07.040Z,101816.22
2023-03-20T06:10:09.301Z,101812.69
2023-03-20T06:12:11.093Z,101810.06
2023-03-20T06:14:12.571Z,101812.69
2023-03-20T06:16:14.110Z,101821.47
2023-03-20T06:18:15.639Z,101823.22
2023-03-20T06:20:17.792Z,101822.34
2023-03-20T06:22:19.325Z,101818.84
2023-03-20T06:24:20.890Z,101823.22
2023-03-20T06:26:22.367Z,101823.22
2023-03-20T06:28:23.828Z,101826.72
2023-03-20T06:30:25.259Z,101824.09
2023-03-20T06:32:27.529Z,101824.06
2023-03-20T06:34:30.200Z,101822.31
2023-03-20T06:36:32.222Z,101825.84
2023-03-20T06:38:33.768Z,101824.09
2023-03-20T06:40:36.174Z,101827.59
2023-03-20T06:42:37.631Z,101823.19
2023-03-20T06:44:39.817Z,101819.69
2023-03-20T06:46:41.393Z,101818.78
2023-03-20T06:48:42.938Z,101831.94
2023-03-20T06:50:46.165Z,101833.69
2023-03-20T06:52:48.425Z,101835.44
2023-03-20T06:54:51.268Z,101840.72
2023-03-20T06:56:52.900Z,101842.47
2023-03-20T06:58:54.341Z,101848.63
2023-03-20T07:00:55.797Z,101846.88
2023-03-20T07:02:57.291Z,101844.25
2023-03-20T07:04:58.899Z,101840.72
2023-03-20T07:07:00.594Z,101843.38
2023-03-20T07:09:02.223Z,101838.09
2023-03-20T07:11:04.455Z,101845.09
2023-03-20T07:13:06.177Z,101842.47
2023-03-20T07:15:07.847Z,101844.22
2023-03-20T07:17:10.485Z,101841.59
2023-03-20T07:19:13.471Z,101841.56
2023-03-20T07:21:21.455Z,101838.94
2023-03-20T07:23:22.940Z,101843.34
2023-03-20T07:25:39.325Z,101845.06
2023-03-20T07:27:50.209Z,101840.66
2023-03-20T07:29:52.305Z,101851.19
2023-03-20T07:31:53.827Z,101856.44
2023-03-20T07:33:55.789Z,101863.44
2023-03-20T07:35:57.565Z,101864.34
2023-03-20T07:37:59.214Z,101862.56
2023-03-20T07:40:01.075Z,101859.94
2023-03-20T07:42:02.547Z,101859.94
2023-03-20T07:44:04.052Z,101859.94
2023-03-20T07:46:07.819Z,101855.53
2023-03-20T07:48:09.357Z,101860.81
2023-03-20T07:50:11.345Z,101857.28
2023-03-20T07:52:12.788Z,101864.31
2023-03-20T07:54:15.226Z,101861.69
2023-03-20T07:56:16.671Z,101867.81
2023-03-20T07:58:18.158Z,101869.56
2023-03-20T08:00:20.124Z,101865.16
2023-03-20T08:02:21.741Z,101859.88
2023-03-20T08:04:23.389Z,101863.41
2023-03-20T08:06:25.039Z,101866.91
2023-03-20T08:08:26.617Z,101866.00
2023-03-20T08:10:28.385Z,101865.13
2023-03-20T08:12:29.971Z,101869.47
2023-03-20T08:14:31.562Z,101867.72
2023-03-20T08:16:33.179Z,101863.34
2023-03-20T08:18:34.792Z,101865.03
2023-03-20T08:20:36.342Z,101869.44
2023-03-20T08:22:37.895Z,101867.66
2023-03-20T08:24:39.376Z,101869.41
2023-03-20T08:26:41.024Z,101871.16
2023-03-20T08:28:47.809Z,101884.34
2023-03-20T08:30:49.942Z,101884.34
2023-03-20T08:32:51.513Z,101887.84
2023-03-20T08:34:55.062Z,101892.22
2023-03-20T08:36:56.525Z,101890.47
2023-03-20T08:38:57.985Z,101884.31
2023-03-20T08:40:59.603Z,101880.78
2023-03-20T08:43:01.119Z,101889.56
2023-03-20T08:45:02.715Z,101878.13
2023-03-20T08:47:05.473Z,101882.50
2023-03-20T08:49:07.278Z,101882.47
2023-03-20T08:51:09.157Z,101885.97
2023-03-20T08:53:11.322Z,101888.59
2023-03-20T08:55:14.843Z,101887.72
2023-03-20T08:57:16.329Z,101874.53
2023-03-20T08:59:19.276Z,101873.66
2023-03-20T09:01:20.917Z,101878.00
2023-03-20T09:03:22.506Z,101883.25
2023-03-20T09:05:24.067Z,101879.69
2023-03-20T09:07:25.568Z,101876.13
2023-03-20T09:09:29.432Z,101875.22
2023-03-20T09:11:32.190Z,101873.44
2023-03-20T09:13:33.879Z,101869.91
2023-03-20T09:15:36.139Z,101869.88
2023-03-20T09:17:37.786Z,101876.00
2023-03-20T09:19:42.529Z,101876.03
2023-03-20T09:21:44.037Z,101876.88
2023-03-20T09:23:45.699Z,101876.84
2023-03-20T09:25:47.608Z,101871.56
2023-03-20T09:27:55.379Z,101874.16
2023-03-20T09:29:56.857Z,101881.13
2023-03-20T09:31:58.424Z,101875.81
2023-03-20T09:34:00.134Z,101879.28
2023-03-20T09:36:01.967Z,101881.00
2023-03-20T09:38:03.750Z,101881.84
2023-03-20T09:40:05.805Z,101880.91
2023-03-20T09:42:26.054Z,101881.84
2023-03-20T09:44:49.065Z,101883.63
2023-03-20T09:47:18.338Z,101868.66
2023-03-20T09:49:39.225Z,101879.22
2023-03-20T09:52:03.145Z,101874.84
2023-03-20T09:54:12.008Z,101883.69
2023-03-20T09:56:22.329Z,101888.94
2023-03-20T09:58:23.743Z,101882.72
2023-03-20T10:00:28.655Z,101886.22
2023-03-20T10:02:40.794Z,101877.38
2023-03-20T10:04:44.072Z,101884.47
2023-03-20T10:06:46.685Z,101880.09
2023-03-20T10:08:48.400Z,101875.69
2023-03-20T10:11:00.663Z,101879.22
2023-03-20T10:13:35.476Z,101877.50
2023-03-20T10:16:06.237Z,101875.75
2023-03-20T10:18:13.893Z,101872.22
2023-03-20T10:20:35.628Z,101871.31
2023-03-20T10:22:48.040Z,101868.69
2023-03-20T10:25:01.999Z,101869.53
2023-03-20T10:27:18.008Z,101873.91
2023-03-20T10:29:40.949Z,101868.59
2023-03-20T10:32:15.618Z,101866.72
2023-03-20T10:34:26.231Z,101866.72
2023-03-20T10:36:52.565Z,101871.91
2023-03-20T10:39:00.694Z,101857.72
2023-03-20T10:41:04.408Z,101854.19
2023-03-20T10:43:43.481Z,101848.03
2023-03-20T10:46:02.877Z,101854.22
2023-03-20T10:48:13.989Z,101855.97
2023-03-20T10:50:18.881Z,101853.34
2023-03-20T10:52:29.071Z,101864.75
2023-03-20T10:54:35.364Z,101861.19
2023-03-20T10:56:43.347Z,101854.16
2023-03-20T10:58:49.313Z,101849.75
2023-03-20T11:00:51.092Z,101843.50
2023-03-20T11:02:53.154Z,101839.81
2023-03-20T11:04:54.623Z,101843.22
2023-03-20T11:07:03.693Z,101841.38
2023-03-20T11:09:19.123Z,101844.84
2023-03-20T11:11:26.652Z,101834.09
2023-03-20T11:13:41.596Z,101841.84
2023-03-20T11:15:43.586Z,101832.91
2023-03-20T11:17:55.604Z,101838.03
2023-03-20T11:20:05.237Z,101830.91
2023-03-20T11:22:24.407Z,101829.84
2023-03-20T11:24:46.094Z,101827.84
2023-03-20T11:26:47.693Z,101829.66
2023-03-20T11:28:52.837Z,101827.09
2023-03-20T11:31:04.492Z,101822.78
2023-03-20T11:33:08.605Z,101824.69
2023-03-20T11:35:18.263Z,101822.06
2023-03-20T11:37:46.728Z,101815.88
2023-03-20T11:39:59.409Z,101815.84
2023-03-20T11:42:02.174Z,101819.31
2023-03-20T11:44:03.638Z,101821.06
2023-03-20T11:46:13.378Z,101812.28
2023-03-20T11:48:19.288Z,101808.78
2023-03-20T11:50:27.084Z,101814.00
2023-03-20T11:52:34.931Z,101812.16
2023-03-20T11:54:36.900Z,101803.44
2023-03-20T11:56:38.532Z,101806.09
2023-03-20T11:59:03.508Z,101809.59
2023-03-20T12:01:08.423Z,101812.09
2023-03-20T12:03:44.986Z,101807.56
2023-03-20T12:05:46.528Z,101816.38
2023-03-20T12:07:52.140Z,101807.63
2023-03-20T12:09:58.790Z,101815.56
2023-03-20T12:12:10.227Z,101808.47
2023-03-20T12:14:19.117Z,101802.31
2023-03-20T12:16:25.204Z,101804.91
2023-03-20T12:18:34.835Z,101808.34
2023-03-20T12:20:36.864Z,101809.25
2023-03-20T12:22:49.384Z,101806.66
2023-03-20T12:25:15.246Z,101800.53
2023-03-20T12:27:40.084Z,101799.75
2023-03-20T12:29:50.182Z,101798.88
2023-03-20T12:32:08.680Z,101798.00
2023-03-20T12:34:16.756Z,101805.03
2023-03-20T12:36:27.012Z,101809.47
2023-03-20T12:38:31.638Z,101798.19
2023-03-20T12:40:43.914Z,101806.22
2023-03-20T12:43:04.966Z,101801.72
2023-03-20T12:45:11.252Z,101795.41
2023-03-20T12:47:24.513Z,101792.75
2023-03-20T12:49:51.939Z,101803.31
2023-03-20T12:52:12.308Z,101798.13
2023-03-20T12:54:38.668Z,101796.31
2023-03-20T12:57:04.918Z,101791.03
2023-03-20T12:59:17.067Z,101792.91
2023-03-20T13:01:41.504Z,101781.47
2023-03-20T13:03:55.292Z,101781.56
2023-03-20T13:06:08.968Z,101782.34
2023-03-20T13:08:19.254Z,101776.16
2023-03-20T13:10:32.020Z,101787.63
2023-03-20T13:13:05.657Z,101779.72
2023-03-20T13:15:25.467Z,101774.47
2023-03-20T13:17:57.785Z,101768.31
2023-03-20T13:20:21.302Z,101771.91
2023-03-20T13:22:30.501Z,101775.56
2023-03-20T13:24:48.058Z,101773.03
2023-03-20T13:27:11.219Z,101769.56
2023-03-20T13:29:34.661Z,101770.47
2023-03-20T13:31:52.498Z,101769.69
2023-03-20T13:34:03.298Z,101775.91
2023-03-20T13:36:31.293Z,101769.69
2023-03-20T13:38:37.742Z,101768.75
2023-03-20T13:40:44.151Z,101770.47
2023-03-20T13:43:00.824Z,101772.22
2023-03-20T13:45:41.978Z,101766.06
2023-03-20T13:47:46.812Z,101766.97
2023-03-20T13:50:08.835Z,101760.78
2023-03-20T13:52:23.363Z,101757.25
2023-03-20T13:54:35.717Z,101766.03
2023-03-20T13:56:55.651Z,101754.53
2023-03-20T13:59:06.600Z,101764.28
2023-03-20T14:01:47.328Z,101761.59
2023-03-20T14:03:49.929Z,101760.69
2023-03-20T14:05:51.725Z,101755.38
2023-03-20T14:07:58.210Z,101757.19
2023-03-20T14:10:22.120Z,101751.88
2023-03-20T14:12:27.475Z,101750.97
2023-03-20T14:14:40.879Z,101755.38
2023-03-20T14:16:42.891Z,101751.88
2023-03-20T14:18:45.679Z,101763.34
2023-03-20T14:20:57.849Z,101765.16
2023-03-20T14:22:59.572Z,101765.25
2023-03-20T14:25:08.042Z,101764.44
2023-03-20T14:27:18.199Z,101758.41
2023-03-20T14:29:30.569Z,101761.13
2023-03-20T14:31:37.692Z,101762.91
2023-03-20T14:33:44.562Z,101758.56
2023-03-20T14:35:50.354Z,101756.81
2023-03-20T14:38:10.293Z,101765.66
2023-03-20T14:40:19.149Z,101761.34
2023-03-20T14:42:40.072Z,101759.66
2023-03-20T14:44:47.631Z,101754.47
2023-03-20T14:47:27.294Z,101751.00
2023-03-20T14:49:48.000Z,101746.72
2023-03-20T14:51:53.465Z,101748.53
2023-03-20T14:53:57.483Z,101763.47
2023-03-20T14:55:59.722Z,101752.16
2023-03-20T14:58:25.357Z,101760.16
2023-03-20T15:00:30.854Z,101759.31
2023-03-20T15:02:36.367Z,101758.47
2023-03-20T15:04:40.821Z,101762.94
2023-03-20T15:06:47.258Z,101759.44
2023-03-20T15:09:07.385Z,101768.25
2023-03-20T15:11:11.965Z,101765.69
2023-03-20T15:13:15.219Z,101764.03
2023-03-20T15:15:31.612Z,101748.28
2023-03-20T15:17:43.993Z,101759.72
2023-03-20T15:19:45.629Z,101756.28
2023-03-20T15:21:48.616Z,101746.59
2023-03-20T15:23:50.691Z,101738.69
2023-03-20T15:25:52.547Z,101731.59
2023-03-20T15:27:55.252Z,101740.31
2023-03-20T15:29:57.642Z,101749.91
2023-03-20T15:32:15.650Z,101752.53
2023-03-20T15:34:27.060Z,101758.72
2023-03-20T15:36:30.167Z,101747.28
2023-03-20T15:38:34.791Z,101749.09
2023-03-20T15:40:50.035Z,101747.41
2023-03-20T15:42:54.486Z,101749.22
2023-03-20T15:44:56.730Z,101747.50
2023-03-20T15:46:58.204Z,101751.03
2023-03-20T15:49:00.303Z,101746.63
2023-03-20T15:51:05.067Z,101745.72
2023-03-20T15:53:11.188Z,101747.44
2023-03-20T15:55:17.820Z,101743.09
2023-03-20T15:57:25.445Z,101741.34
2023-03-20T15:59:30.769Z,101744.91
2023-03-20T16:01:32.948Z,101740.53
2023-03-20T16:03:38.081Z,101735.25
2023-03-20T16:05:44.213Z,101737.88
2023-03-20T16:07:45.852Z,101738.75
2023-03-20T16:09:47.938Z,101744.00
2023-03-20T16:11:59.880Z,101738.75
2023-03-20T16:14:02.165Z,101742.28
2023-03-20T16:16:05.088Z,101740.56
2023-03-20T16:18:07.377Z,101738.84
2023-03-20T16:20:14.753Z,101731.81
2023-03-20T16:22:27.920Z,101738.81
2023-03-20T16:24:35.434Z,101742.34
2023-03-20T16:26:40.637Z,101739.69
2023-03-20T16:28:45.409Z,101733.59
2023-03-20T16:30:46.888Z,101741.53
2023-03-20T16:32:55.018Z,101747.69
2023-03-20T16:34:58.181Z,101742.47
2023-03-20T16:37:02.098Z,101742.47
2023-03-20T16:39:19.694Z,101741.59
2023-03-20T16:41:38.495Z,101738.06
2023-03-20T16:43:40.141Z,101741.59
2023-03-20T16:45:45.589Z,101744.22
2023-03-20T16:47:48.800Z,101740.69
2023-03-20T16:50:11.676Z,101741.59
2023-03-20T16:52:15.881Z,101740.78
2023-03-20T16:54:21.162Z,101733.81
2023-03-20T16:56:28.952Z,101747.00
2023-03-20T16:58:33.195Z,101747.00
2023-03-20T17:00:50.894Z,101738.28
2023-03-20T17:03:01.112Z,101746.22
2023-03-20T17:05:06.822Z,101741.88
2023-03-20T17:07:13.681Z,101743.69
2023-03-20T17:09:24.675Z,101747.22
2023-03-20T17:11:32.944Z,101749.91
2023-03-20T17:13:34.408Z,101755.25
2023-03-20T17:15:35.946Z,101753.53
2023-03-20T17:17:37.431Z,101759.72
2023-03-20T17:19:38.930Z,101756.22
2023-03-20T17:21:41.217Z,101758.84
2023-03-20T17:23:42.851Z,101766.75
2023-03-20T17:25:44.487Z,101772.94
2023-03-20T17:27:46.948Z,101767.72
2023-03-20T17:29:51.626Z,101766.03
2023-03-20T17:31:53.252Z,101772.22
2023-03-20T17:33:54.854Z,101762.59
2023-03-20T17:35:57.500Z,101770.53
2023-03-20T17:37:59.518Z,101764.38
2023-03-20T17:40:01.043Z,101765.25
2023-03-20T17:42:03.140Z,101760.88
2023-03-20T17:44:04.690Z,101758.25
2023-03-20T17:46:06.822Z,101751.22
2023-03-20T17:48:18.174Z,101753.00
2023-03-20T17:50:25.364Z,101753.00
2023-03-20T17:52:28.114Z,101759.16
2023-03-20T17:54:29.598Z,101746.00
2023-03-20T17:56:32.701Z,101750.41
2023-03-20T17:58:34.169Z,101755.69
2023-03-20T18:00:36.102Z,101756.56
2023-03-20T18:02:38.047Z,101755.69
2023-03-20T18:04:39.529Z,101758.31
2023-03-20T18:06:41.057Z,101755.69
2023-03-20T18:08:42.548Z,101774.13
2023-03-20T18:10:44.306Z,101765.34
2023-03-20T18:12:45.990Z,101761.00
2023-03-20T18:14:47.501Z,101763.63
2023-03-20T18:16:49.061Z,101761.03
2023-03-20T18:18:51.508Z,101771.53
2023-03-20T18:20:54.727Z,101770.66
2023-03-20T18:22:56.480Z,101778.56
2023-03-20T18:24:57.948Z,101787.34
2023-03-20T18:26:59.960Z,101779.44
2023-03-20T18:29:01.416Z,101780.31
2023-03-20T18:31:02.934Z,101775.06
2023-03-20T18:33:05.641Z,101780.34
2023-03-20T18:35:07.647Z,101775.94
2023-03-20T18:37:13.986Z,101781.19
2023-03-20T18:39:21.397Z,101771.56
2023-03-20T18:41:23.167Z,101769.78
2023-03-20T18:43:24.634Z,101774.19
2023-03-20T18:45:27.972Z,101766.31
2023-03-20T18:47:29.442Z,101775.06
2023-03-20T18:49:31.659Z,101766.31
2023-03-20T18:51:33.640Z,101770.69
2023-03-20T18:53:35.210Z,101775.06
2023-03-20T18:55:38.109Z,101777.69
2023-03-20T18:57:43.066Z,101762.81
2023-03-20T18:59:44.718Z,101768.94
2023-03-20T19:01:46.313Z,101767.19
2023-03-20T19:03:48.905Z,101770.72
2023-03-20T19:05:55.543Z,101762.84
2023-03-20T19:07:58.897Z,101769.84
2023-03-20T19:10:00.376Z,101767.22
2023-03-20T19:12:01.875Z,101764.59
2023-03-20T19:14:03.652Z,101762.84
2023-03-20T19:16:10.455Z,101761.09
2023-03-20T19:18:17.006Z,101760.19
2023-03-20T19:20:24.574Z,101771.59
2023-03-20T19:22:29.571Z,101754.06
2023-03-20T19:24:31.432Z,101757.56
2023-03-20T19:26:35.235Z,101760.22
2023-03-20T19:28:40.979Z,101755.84
2023-03-20T19:30:42.957Z,101756.72
2023-03-20T19:32:44.857Z,101756.72
2023-03-20T19:35:35.342Z,101761.09
2023-03-20T19:37:11.994Z,101756.72
2023-03-20T19:39:15.324Z,101760.22
2023-03-20T19:41:19.786Z,101757.59
2023-03-20T19:43:23.234Z,101748.84
2023-03-20T19:45:28.157Z,101746.22
2023-03-20T19:47:29.691Z,101747.97
2023-03-20T19:49:33.028Z,101744.47
2023-03-20T19:51:34.648Z,101746.22
2023-03-20T19:53:36.108Z,101748.84
2023-03-20T19:55:38.099Z,101743.59
2023-03-20T19:57:39.676Z,101747.09
2023-03-20T19:59:43.913Z,101746.22
2023-03-20T20:01:45.953Z,101741.84
2023-03-20T20:03:49.579Z,101741.84
2023-03-20T20:05:52.927Z,101748.00
2023-03-20T20:08:22.572Z,101754.16
2023-03-20T20:10:20.871Z,101739.22
2023-03-20T20:12:22.368Z,101742.72
2023-03-20T20:14:24.259Z,101735.72
2023-03-20T20:16:25.741Z,101736.63
2023-03-20T20:18:28.823Z,101734.84
2023-03-20T20:20:34.479Z,101737.47
2023-03-20T20:22:36.806Z,101733.09
2023-03-20T20:24:38.277Z,101727.84
2023-03-20T20:26:49.385Z,101735.72
2023-03-20T20:28:54.581Z,101731.34
2023-03-20T20:30:57.168Z,101733.09
2023-03-20T20:33:03.487Z,101729.59
2023-03-20T20:35:40.679Z,101734.84
2023-03-20T20:38:19.654Z,101726.09
2023-03-20T20:39:51.242Z,101722.59
2023-03-20T20:41:52.725Z,101733.97
2023-03-20T20:44:15.092Z,101728.72
2023-03-20T20:46:15.735Z,101734.88
2023-03-20T20:48:18.752Z,101726.09
2023-03-20T20:50:31.729Z,101725.22
2023-03-20T20:52:36.140Z,101734.88
2023-03-20T20:54:37.914Z,101735.75
2023-03-20T20:56:39.624Z,101731.34
2023-03-20T20:58:41.154Z,101719.97
2023-03-20T21:00:51.692Z,101729.63
2023-03-20T21:02:54.912Z,101724.38
2023-03-20T21:04:56.892Z,101728.75
2023-03-20T21:07:09.308Z,101727.00
2023-03-20T21:09:12.010Z,101724.38
2023-03-20T21:11:14.792Z,101726.13
2023-03-20T21:13:16.339Z,101724.38
2023-03-20T21:15:18.318Z,101722.63
2023-03-20T21:17:20.373Z,101725.25
2023-03-20T21:19:21.938Z,101726.13
2023-03-20T21:21:23.866Z,101720.88
2023-03-20T21:23:26.014Z,101713.00
2023-03-20T21:25:47.066Z,101719.13
2023-03-20T21:27:49.243Z,101714.75
2023-03-20T21:29:50.968Z,101713.00
2023-03-20T21:31:52.912Z,101717.34
2023-03-20T21:33:55.960Z,101722.63
2023-03-20T21:35:57.557Z,101716.47
2023-03-20T21:40:20.542Z,101716.50
2023-03-20T21:42:22.009Z,101712.97
2023-03-20T21:45:01.084Z,101719.97
2023-03-20T21:52:31.158Z,101720.88
2023-03-20T21:54:47.595Z,101719.09
2023-03-20T21:56:50.564Z,101711.22
2023-03-20T21:59:14.747Z,101719.97
2023-03-20T22:03:34.907Z,101707.72
2023-03-20T22:08:48.617Z,101712.09
2023-03-20T22:13:28.466Z,101707.72
2023-03-20T22:15:39.300Z,101712.97
2023-03-20T22:20:33.146Z,101705.09
2023-03-20T22:23:21.050Z,101706.84
2023-03-20T22:39:34.081Z,101712.09
2023-03-20T22:46:05.655Z,101700.69
2023-03-20T22:48:13.021Z,101710.31
2023-03-20T22:50:14.537Z,101705.06
2023-03-20T22:52:29.145Z,101696.31
2023-03-20T22:54:33.547Z,101703.31
2023-03-20T22:56:35.006Z,101705.06
2023-03-20T22:58:36.545Z,101705.06
2023-03-20T23:00:38.452Z,101702.44
2023-03-20T23:02:40.377Z,101711.22
2023-03-20T23:04:41.969Z,101707.72
2023-03-20T23:06:43.470Z,101702.44
2023-03-20T23:08:52.075Z,101705.94
2023-03-20T23:10:56.425Z,101698.94
2023-03-20T23:12:58.270Z,101708.59
2023-03-20T23:15:00.717Z,101697.19
2023-03-20T23:17:02.285Z,101698.06
2023-03-20T23:19:03.888Z,101703.31
2023-03-20T23:21:05.907Z,101698.94
2023-03-20T23:23:07.402Z,101702.44
2023-03-20T23:25:18.637Z,101700.69
2023-03-20T23:27:28.747Z,101698.94
2023-03-20T23:29:30.435Z,101705.06
2023-03-20T23:31:32.049Z,101698.91
2023-03-20T23:33:33.682Z,101702.44
2023-03-20T23:35:35.363Z,101698.03
2023-03-20T23:37:37.269Z,101699.81
2023-03-20T23:39:38.793Z,101692.78
2023-03-20T23:44:03.679Z,101696.28
2023-03-20T23:46:07.065Z,101691.03
2023-03-20T23:48:08.618Z,101695.41
2023-03-20T23:50:14.553Z,101684.88
2023-03-20T23:52:18.784Z,101684.00
2023-03-20T23:54:20.718Z,101684.03
2023-03-20T23:56:22.240Z,101687.53
2023-03-20T23:58:26.568Z,101685.78
